Time;durP1;ratioP1;P1;durP2;ratioP2;P2;SDS_P1;SDS_P2;PMS_P1;PMS_P2;Temp;Humidity;BMP_temperature;BMP_pressure;BME280_temperature;BME280_humidity;BME280_pressure;Samples;Min_cycle;Max_cycle;Signal;HPM_P1;HPM_P2
2022/03/12 00:00:48;;;;;;;31.85;17.52;;;;;;;-2.11;43.42;101082.75;4933383;29;20039;-76
2022/03/12 00:03:14;;;;;;;39.75;18.25;;;;;;;-2.04;43.61;101099.13;4934854;29;20393;-76
2022/03/12 00:05:47;;;;;;;31.83;15.60;;;;;;;-2.12;43.42;101082.75;4933330;29;20102;-76
2022/03/12 00:08:13;;;;;;;34.20;16.48;;;;;;;-2.07;43.57;101099.03;4934567;29;20460;-76
2022/03/12 00:10:41;;;;;;;33.40;16.45;;;;;;;-2.15;43.62;101080.09;4934465;29;20064;-76
2022/03/12 00:13:07;;;;;;;43.40;20.10;;;;;;;-2.07;43.75;101099.03;4934717;29;20059;-76
2022/03/12 00:15:35;;;;;;;32.90;16.08;;;;;;;-2.15;43.90;101075.88;4934422;29;20474;-76
2022/03/12 00:18:01;;;;;;;40.15;18.60;;;;;;;-2.15;43.89;101086.09;4934600;29;20032;-76
2022/03/12 00:20:28;;;;;;;35.50;18.40;;;;;;;-2.22;43.79;101065.44;4934290;29;20091;-76
2022/03/12 00:22:54;;;;;;;34.03;16.80;;;;;;;-2.28;43.95;101058.47;4934481;29;20114;-76
2022/03/12 00:25:22;;;;;;;33.28;18.00;;;;;;;-2.16;44.15;101081.78;4934652;29;20078;-76
2022/03/12 00:27:50;;;;;;;42.97;19.30;;;;;;;-2.23;44.49;101084.13;4934405;29;20028;-76
2022/03/12 00:30:19;;;;;;;39.88;20.05;;;;;;;-2.20;44.30;101090.16;4934479;29;20119;-76
2022/03/12 00:32:47;;;;;;;39.60;18.60;;;;;;;-2.31;44.54;101068.59;4934184;29;20024;-76
2022/03/12 00:35:14;;;;;;;36.28;17.58;;;;;;;-2.26;44.22;101088.31;4934397;29;20032;-76
2022/03/12 00:37:40;;;;;;;41.35;17.75;;;;;;;-2.25;44.79;101086.63;4934763;29;20027;-76
2022/03/12 00:40:06;;;;;;;39.08;18.60;;;;;;;-2.28;44.75;101087.41;4933233;29;20468;-76
2022/03/12 00:42:31;;;;;;;33.65;18.45;;;;;;;-2.29;44.89;101089.91;4933999;29;20063;-76
2022/03/12 00:44:57;;;;;;;38.33;18.23;;;;;;;-2.34;45.19;101071.94;4934391;29;20395;-76
2022/03/12 00:47:23;;;;;;;39.15;20.88;;;;;;;-2.33;45.45;101075.34;4934375;29;20027;-76
2022/03/12 00:49:50;;;;;;;36.50;18.67;;;;;;;-2.31;44.48;101077.13;4933998;29;20031;-76
2022/03/12 00:52:16;;;;;;;38.00;19.70;;;;;;;-2.32;44.82;101077.97;4933181;29;20384;-76
2022/03/12 00:54:42;;;;;;;42.72;19.63;;;;;;;-2.35;45.08;101080.41;4934103;29;20028;-76
2022/03/12 00:57:10;;;;;;;39.58;18.23;;;;;;;-2.40;45.51;101074.31;4935886;29;20030;-75
2022/03/12 00:59:40;;;;;;;33.30;17.52;;;;;;;-2.41;45.23;101079.34;4937590;29;20035;-76
2022/03/12 01:02:07;;;;;;;34.30;19.17;;;;;;;-2.49;45.68;101055.31;4937696;29;20463;-76
2022/03/12 01:04:33;;;;;;;40.80;19.15;;;;;;;-2.39;45.51;101067.53;4936162;29;20063;-76
2022/03/12 01:06:58;;;;;;;40.35;20.55;;;;;;;-2.41;45.52;101072.56;4937843;29;20106;-76
2022/03/12 01:09:24;;;;;;;36.85;18.25;;;;;;;-2.45;45.60;101068.19;4937510;29;20174;-75
2022/03/12 01:11:49;;;;;;;44.40;20.85;;;;;;;-2.48;45.92;101067.28;4937111;29;20054;-76
2022/03/12 01:14:15;;;;;;;37.30;18.65;;;;;;;-2.47;45.89;101074.09;4937491;29;20099;-76
2022/03/12 01:16:41;;;;;;;39.40;19.58;;;;;;;-2.49;46.04;101073.16;4937320;29;20039;-76
2022/03/12 01:19:07;;;;;;;38.25;18.30;;;;;;;-2.60;45.95;101062.66;4937436;29;20501;-76
2022/03/12 01:21:32;;;;;;;44.90;20.17;;;;;;;-2.62;46.57;101067.69;4936102;29;20036;-76
2022/03/12 01:23:58;;;;;;;43.60;20.30;;;;;;;-2.67;46.59;101060.75;4937522;29;20031;-76
2022/03/12 01:26:23;;;;;;;41.25;19.70;;;;;;;-2.59;46.54;101080.56;4936113;29;20024;-76
2022/03/12 01:28:49;;;;;;;43.08;20.05;;;;;;;-2.62;46.54;101066.84;4937046;29;20031;-76
2022/03/12 01:31:16;;;;;;;44.15;19.50;;;;;;;-2.64;46.39;101065.94;4937128;29;20027;-76
2022/03/12 01:33:41;;;;;;;40.90;20.15;;;;;;;-2.63;46.46;101060.03;4935498;29;20032;-76
2022/03/12 01:36:07;;;;;;;38.28;20.05;;;;;;;-2.70;46.95;101055.53;4937314;29;20042;-76
2022/03/12 01:38:51;;;;;;;40.28;20.23;;;;;;;-2.68;46.91;101059.88;4937008;29;20024;-76
2022/03/12 01:41:21;;;;;;;47.45;22.90;;;;;;;-2.76;47.03;101049.44;4937104;29;20063;-76
2022/03/12 01:43:49;;;;;;;48.60;23.33;;;;;;;-2.70;47.15;101058.09;4936750;29;20023;-76
2022/03/12 01:46:15;;;;;;;44.05;21.95;;;;;;;-2.79;47.20;101051.03;4936834;29;20546;-76
2022/03/12 01:48:49;;;;;;;49.83;23.70;;;;;;;-2.80;47.38;101042.53;4935499;29;20504;-77
2022/03/12 01:51:15;;;;;;;43.83;20.15;;;;;;;-2.82;47.45;101046.72;4935507;29;20385;-76
2022/03/12 01:53:41;;;;;;;45.30;21.55;;;;;;;-2.79;47.30;101051.03;4936451;29;20040;-76
2022/03/12 01:56:06;;;;;;;42.20;19.77;;;;;;;-2.82;47.67;101048.44;4936691;29;20032;-76
2022/03/12 01:58:34;;;;;;;44.67;20.45;;;;;;;-2.84;47.66;101050.91;4936358;29;20055;-76
2022/03/12 02:01:00;;;;;;;39.97;20.25;;;;;;;-2.94;47.74;101027.66;4936895;29;20031;-76
2022/03/12 02:03:29;;;;;;;39.13;19.15;;;;;;;-2.96;48.17;101029.28;4935605;29;20555;-76
2022/03/12 02:05:59;;;;;;;48.75;21.25;;;;;;;-2.92;47.68;101041.31;4936272;29;20600;-76
2022/03/12 02:08:25;;;;;;;44.50;21.83;;;;;;;-2.88;47.61;101049.09;4934893;29;20518;-76
2022/03/12 02:10:51;;;;;;;40.00;19.88;;;;;;;-2.86;47.96;101051.69;4936137;29;20080;-76
2022/03/12 02:13:17;;;;;;;39.88;20.30;;;;;;;-2.97;47.97;101032.66;4936255;29;20483;-76
2022/03/12 02:15:43;;;;;;;38.45;19.42;;;;;;;-3.06;48.22;101013.72;4936324;29;20032;-76
2022/03/12 02:18:12;;;;;;;45.33;19.83;;;;;;;-2.97;47.70;101022.47;4936295;29;20507;-76
2022/03/12 02:20:38;;;;;;;38.95;19.40;;;;;;;-2.91;47.82;101031.13;4936158;29;20491;-76
2022/03/12 02:23:08;;;;;;;41.88;19.30;;;;;;;-2.89;47.71;101026.09;4936182;29;20500;-75
2022/03/12 02:25:34;;;;;;;43.70;21.75;;;;;;;-2.98;47.93;101019.06;4934981;29;20032;-76
2022/03/12 02:28:02;;;;;;;43.03;19.98;;;;;;;-2.98;48.16;101020.72;4936238;29;20500;-76
2022/03/12 02:30:42;;;;;;;35.42;18.00;;;;;;;-2.96;48.17;101027.59;4935010;29;20032;-76
2022/03/12 02:33:08;;;;;;;39.65;18.98;;;;;;;-3.06;48.14;101015.41;4936095;29;20507;-76
2022/03/12 02:35:36;;;;;;;41.65;20.60;;;;;;;-3.02;48.09;101017.22;4936010;29;20039;-76
2022/03/12 02:38:03;;;;;;;45.03;20.38;;;;;;;-3.02;48.44;101014.69;4935909;29;20556;-76
2022/03/12 02:40:29;;;;;;;40.13;19.33;;;;;;;-3.11;48.39;101004.22;4936132;29;20115;-77
2022/03/12 02:42:56;;;;;;;40.92;20.25;;;;;;;-3.06;48.53;101015.41;4935796;29;20538;-76
2022/03/12 02:45:22;;;;;;;35.58;17.65;;;;;;;-3.04;48.45;101023.94;4935925;29;20107;-76
2022/03/12 02:47:48;;;;;;;42.28;19.13;;;;;;;-3.14;48.49;101001.56;4935627;29;20023;-76
2022/03/12 02:50:14;;;;;;;36.50;18.23;;;;;;;-3.07;48.25;101016.22;4935766;29;20139;-76
2022/03/12 02:52:44;;;;;;;38.97;19.67;;;;;;;-3.13;48.67;101011.78;4935375;29;20028;-76
2022/03/12 02:55:13;;;;;;;38.65;19.60;;;;;;;-3.08;48.51;101022.13;4935771;29;20067;-76
2022/03/12 02:57:40;;;;;;;39.08;18.15;;;;;;;-3.07;48.48;101027.28;4935540;29;20024;-77
2022/03/12 03:00:08;;;;;;;42.92;20.60;;;;;;;-3.08;48.81;101030.63;4934399;29;20028;-76
2022/03/12 03:02:41;;;;;;;41.13;19.95;;;;;;;-3.21;49.03;101008.13;4934283;29;20032;-76
2022/03/12 03:05:41;;;;;;;37.70;18.38;;;;;;;-3.15;48.93;101025.31;4935358;29;20039;-76
2022/03/12 03:08:09;;;;;;;40.08;19.92;;;;;;;-3.14;48.95;101029.59;4935631;29;20032;-77
2022/03/12 03:10:37;;;;;;;33.90;18.80;;;;;;;-3.12;48.75;101026.28;4933970;29;20031;-76
2022/03/12 03:13:28;;;;;;;40.88;18.95;;;;;;;-3.12;49.06;101033.94;4934038;29;20136;-76
2022/03/12 03:16:02;;;;;;;41.03;18.73;;;;;;;-3.22;49.20;101011.50;4894820;29;20048;-76
2022/03/12 03:18:35;;;;;;;43.47;19.73;;;;;;;-3.26;49.37;101009.69;4895005;29;20037;-76
2022/03/12 03:21:01;;;;;;;34.38;18.38;;;;;;;-3.22;48.96;101021.69;4894150;29;20048;-76
2022/03/12 03:23:29;;;;;;;35.60;18.27;;;;;;;-3.27;49.43;101020.69;4894984;29;20524;-76
2022/03/12 03:25:55;;;;;;;51.22;22.83;;;;;;;-3.26;49.31;101024.97;4894610;29;20037;-76
2022/03/12 03:28:21;;;;;;;52.30;21.10;;;;;;;-3.35;49.38;100997.53;4895092;29;20477;-76
2022/03/12 03:30:47;;;;;;;39.05;20.15;;;;;;;-3.28;49.67;101014.75;4894571;29;20059;-76
2022/03/12 03:33:15;;;;;;;42.70;19.73;;;;;;;-3.33;49.65;101000.09;4894651;29;20034;-76
2022/03/12 03:35:40;;;;;;;40.63;19.50;;;;;;;-3.38;49.63;100989.78;4894614;29;20119;-76
2022/03/12 03:38:08;;;;;;;40.17;20.05;;;;;;;-3.48;50.03;100979.28;4894768;29;20069;-76
2022/03/12 03:40:34;;;;;;;41.55;19.55;;;;;;;-3.40;50.21;100993.97;4894687;29;20497;-76
2022/03/12 03:42:59;;;;;;;35.47;18.60;;;;;;;-3.37;49.88;100999.19;4894616;29;20128;-76
2022/03/12 03:45:27;;;;;;;39.33;19.25;;;;;;;-3.37;50.22;100994.09;4894963;29;20041;-76
2022/03/12 03:47:54;;;;;;;40.05;19.98;;;;;;;-3.41;50.32;100999.00;4878722;29;20529;-76
2022/03/12 03:50:25;;;;;;;37.50;20.40;;;;;;;-3.58;50.80;100986.63;4894620;29;20180;-76
2022/03/12 03:53:03;;;;;;;56.35;23.50;;;;;;;-3.42;50.81;101004.94;4914433;29;20043;-76
2022/03/12 03:55:33;;;;;;;43.97;20.48;;;;;;;-3.50;50.74;100989.41;4934801;29;20636;-77
2022/03/12 03:58:00;;;;;;;37.72;18.58;;;;;;;-3.42;50.65;101003.25;4934640;29;20118;-76
2022/03/12 04:00:27;;;;;;;37.28;18.60;;;;;;;-3.49;50.60;100988.59;4934782;29;20571;-76
2022/03/12 04:03:04;;;;;;;40.78;19.25;;;;;;;-3.45;50.89;100997.22;4934479;29;20028;-76
2022/03/12 04:05:38;;;;;;;35.42;17.50;;;;;;;-3.50;50.80;101002.13;4934659;29;20095;-77
2022/03/12 04:08:07;;;;;;;37.75;19.85;;;;;;;-3.46;51.20;100998.84;4934375;29;20408;-76
2022/03/12 04:10:33;;;;;;;38.83;18.67;;;;;;;-3.48;50.74;101000.50;4934575;29;20071;-76
2022/03/12 04:12:59;;;;;;;33.33;18.17;;;;;;;-3.60;51.27;100975.50;4934409;29;20075;-76
2022/03/12 04:15:25;;;;;;;40.53;20.75;;;;;;;-3.58;51.27;100989.19;4934573;29;20031;-76
2022/03/12 04:17:51;;;;;;;40.47;19.08;;;;;;;-3.56;50.94;100999.41;4934356;29;20032;-76
2022/03/12 04:20:20;;;;;;;35.25;18.90;;;;;;;-3.55;51.19;101007.06;4934469;29;20527;-76
2022/03/12 04:22:51;;;;;;;37.05;19.17;;;;;;;-3.62;51.00;101001.75;4933216;29;20182;-76
2022/03/12 04:25:18;;;;;;;44.90;19.83;;;;;;;-3.47;50.50;101012.41;4934565;29;20031;-76
2022/03/12 04:27:44;;;;;;;37.97;18.52;;;;;;;-3.54;50.81;100996.09;4934311;29;20028;-76
2022/03/12 04:30:14;;;;;;;40.08;18.75;;;;;;;-3.46;50.74;101003.09;4934512;29;20040;-77
2022/03/12 04:32:42;;;;;;;37.28;17.95;;;;;;;-3.46;50.97;101006.50;4938224;29;20070;-76
2022/03/12 04:35:08;;;;;;;44.80;20.27;;;;;;;-3.46;50.77;101005.63;4937122;29;20125;-76
2022/03/12 04:37:34;;;;;;;41.35;21.98;;;;;;;-3.59;51.23;100984.00;4938045;28;20059;-76
2022/03/12 04:40:01;;;;;;;39.17;19.00;;;;;;;-3.61;51.04;100986.53;4938013;29;20090;-76
2022/03/12 04:42:26;;;;;;;34.47;17.58;;;;;;;-3.61;50.49;100981.44;4938125;29;20090;-77
2022/03/12 04:44:52;;;;;;;35.78;18.38;;;;;;;-3.53;51.19;101000.38;4937852;29;20028;-76
2022/03/12 04:47:19;;;;;;;42.95;19.55;;;;;;;-3.52;51.00;100991.91;4936648;29;20034;-76
2022/03/12 04:49:45;;;;;;;44.35;19.80;;;;;;;-3.62;51.08;100971.22;4937884;29;20036;-76
2022/03/12 04:52:11;;;;;;;41.90;18.90;;;;;;;-3.53;51.21;100987.63;4936651;28;20110;-76
2022/03/12 04:54:37;;;;;;;45.13;20.67;;;;;;;-3.61;51.21;100978.88;4937987;29;20155;-76
2022/03/12 04:57:04;;;;;;;39.78;20.33;;;;;;;-3.56;51.01;100987.53;4937719;29;20138;-76
2022/03/12 04:59:29;;;;;;;39.50;20.33;;;;;;;-3.52;51.16;100988.50;4937881;29;20110;-76
2022/03/12 05:01:57;;;;;;;38.38;20.27;;;;;;;-3.59;51.20;100978.91;4937669;29;20159;-76
2022/03/12 05:04:22;;;;;;;35.75;18.85;;;;;;;-3.59;51.05;100982.31;4937812;29;20032;-76
2022/03/12 05:06:48;;;;;;;43.40;21.05;;;;;;;-3.52;51.51;100994.44;4937396;29;20024;-76
2022/03/12 05:09:13;;;;;;;39.03;19.10;;;;;;;-3.66;51.66;100975.34;4936381;29;20067;-76
2022/03/12 05:11:39;;;;;;;40.15;19.67;;;;;;;-3.64;51.67;100970.28;4937374;29;20515;-76
2022/03/12 05:14:06;;;;;;;41.05;20.60;;;;;;;-3.66;51.34;100977.88;4937276;29;20111;-76
2022/03/12 05:16:33;;;;;;;38.92;19.17;;;;;;;-3.66;51.54;100977.88;4936077;29;20470;-76
2022/03/12 05:18:59;;;;;;;39.97;19.85;;;;;;;-3.58;51.63;101004.47;4937079;29;20503;-76
2022/03/12 05:21:25;;;;;;;43.13;19.83;;;;;;;-3.54;51.61;101000.28;4937494;29;20036;-76
2022/03/12 05:23:50;;;;;;;53.20;24.38;;;;;;;-3.70;51.49;100959.91;4937421;29;20043;-75
2022/03/12 05:26:16;;;;;;;80.05;33.40;;;;;;;-3.57;51.40;100979.84;4937604;29;20035;-76
2022/03/12 05:28:41;;;;;;;51.95;21.63;;;;;;;-3.56;51.51;100981.56;4937136;29;20035;-76
2022/03/12 05:31:09;;;;;;;46.80;19.58;;;;;;;-3.53;51.72;100999.50;4935638;29;20050;-75
2022/03/12 05:33:35;;;;;;;44.20;20.10;;;;;;;-3.56;51.65;100984.97;4937221;29;20030;-76
2022/03/12 05:36:02;;;;;;;42.08;19.88;;;;;;;-3.45;51.54;100992.97;4935714;29;20126;-76
2022/03/12 05:38:31;;;;;;;41.45;19.35;;;;;;;-3.52;51.19;100976.63;4937193;29;20032;-76
2022/03/12 05:40:57;;;;;;;38.90;19.40;;;;;;;-3.38;50.97;100994.00;4936850;29;20035;-76
2022/03/12 05:43:24;;;;;;;35.88;18.58;;;;;;;-3.35;51.25;100989.88;4936139;29;20063;-76
2022/03/12 05:45:52;;;;;;;43.33;18.70;;;;;;;-3.37;50.84;100981.34;4936670;29;20031;-76
2022/03/12 05:48:20;;;;;;;38.22;19.00;;;;;;;-3.32;51.08;100974.69;4937035;29;20111;-76
2022/03/12 05:50:49;;;;;;;45.85;21.48;;;;;;;-3.20;50.90;100978.41;4936750;29;20514;-76
2022/03/12 05:53:19;;;;;;;46.25;21.55;;;;;;;-3.04;50.64;100981.47;4935530;29;20028;-76
2022/03/12 05:55:47;;;;;;;38.60;18.92;;;;;;;-2.87;50.16;100989.63;4936675;29;20043;-76
2022/03/12 05:58:18;;;;;;;51.10;21.65;;;;;;;-2.56;49.52;100987.97;4936622;29;20043;-76
2022/03/12 06:00:43;;;;;;;;;;;;;;;-2.19;49.13;100996.59;4936052;29;20043;-76
2022/03/12 06:03:12;;;;;;;37.92;19.48;;;;;;;-1.81;48.13;100961.88;4935276;29;20356;-76
2022/03/12 06:05:41;;;;;;;39.53;19.85;;;;;;;-1.41;46.30;100971.31;4936726;29;20034;-76
2022/03/12 06:08:08;;;;;;;35.08;17.67;;;;;;;-1.09;46.00;100976.31;4936533;29;20416;-75
2022/03/12 06:10:34;;;;;;;44.05;21.70;;;;;;;-0.83;45.18;100976.84;4936174;29;20032;-76
2022/03/12 06:13:00;;;;;;;48.53;23.05;;;;;;;-0.68;44.42;100972.03;4934833;29;20102;-76
2022/03/12 06:15:26;;;;;;;42.90;22.10;;;;;;;-0.52;43.92;100968.09;4936611;29;20024;-76
2022/03/12 06:17:53;;;;;;;46.78;21.45;;;;;;;-0.13;44.34;100969.66;4934980;29;20487;-76
2022/03/12 06:20:23;;;;;;;49.35;21.90;;;;;;;-0.02;43.04;100971.59;4936444;29;20070;-76
2022/03/12 06:22:50;;;;;;;40.67;19.02;;;;;;;0.19;42.86;100965.97;4936308;29;20066;-76
2022/03/12 06:25:17;;;;;;;45.03;22.95;;;;;;;0.28;41.53;100978.06;4936169;29;20035;-76
2022/03/12 06:27:43;;;;;;;41.53;21.45;;;;;;;0.48;41.95;100974.13;4936332;29;20019;-76
2022/03/12 06:30:11;;;;;;;40.42;21.55;;;;;;;0.79;40.59;100976.28;4936039;29;20432;-76
2022/03/12 06:32:38;;;;;;;41.65;21.35;;;;;;;0.99;40.47;100970.59;4936035;29;20028;-76
2022/03/12 06:35:05;;;;;;;40.35;21.10;;;;;;;1.22;40.55;100972.59;4935988;29;20038;-76
2022/03/12 06:37:32;;;;;;;49.90;23.33;;;;;;;1.17;40.39;100974.25;4936028;29;20039;-77
2022/03/12 06:39:58;;;;;;;41.08;21.55;;;;;;;1.55;39.59;100974.69;4935613;29;20522;-76
2022/03/12 06:42:25;;;;;;;45.08;22.88;;;;;;;2.02;39.13;100948.63;4936048;29;20024;-77
2022/03/12 06:44:53;;;;;;;46.85;23.38;;;;;;;2.17;38.35;100969.34;4935820;29;20106;-77
2022/03/12 06:47:19;;;;;;;41.97;22.80;;;;;;;2.10;38.25;100976.97;4935983;29;20043;-76
2022/03/12 06:49:45;;;;;;;51.20;24.00;;;;;;;2.38;38.12;100960.94;4935853;29;20039;-76
2022/03/12 06:52:10;;;;;;;44.13;21.77;;;;;;;3.00;37.64;100949.34;4935391;29;20031;-76
2022/03/12 06:54:36;;;;;;;43.28;22.67;;;;;;;3.18;36.24;100954.56;4934564;29;20400;-76
2022/03/12 06:57:03;;;;;;;43.33;22.50;;;;;;;3.05;36.66;100969.97;4935640;29;20035;-76
2022/03/12 06:59:29;;;;;;;44.78;21.70;;;;;;;3.95;35.88;100975.41;4935757;29;20559;-76
2022/03/12 07:01:54;;;;;;;47.13;24.63;;;;;;;4.43;34.28;100959.13;4934178;29;20092;-77
2022/03/12 07:04:21;;;;;;;39.72;19.85;;;;;;;4.48;34.70;100962.56;4935569;29;20395;-76
2022/03/12 07:06:48;;;;;;;45.58;22.35;;;;;;;4.69;34.44;100956.50;4935447;29;20039;-76
2022/03/12 07:09:13;;;;;;;45.42;22.02;;;;;;;5.38;33.36;100964.03;4935154;29;20024;-76
2022/03/12 07:11:39;;;;;;;43.60;22.35;;;;;;;5.10;33.25;100952.09;4935140;29;20511;-76
2022/03/12 07:14:04;;;;;;;47.60;24.27;;;;;;;4.93;33.02;100962.47;4935372;29;20353;-76
2022/03/12 07:16:30;;;;;;;49.08;23.48;;;;;;;4.36;32.98;100933.31;4935513;29;20035;-76
2022/03/12 07:18:56;;;;;;;41.67;22.48;;;;;;;4.74;33.59;100946.16;4935122;29;20031;-76
2022/03/12 07:21:22;;;;;;;49.17;21.60;;;;;;;5.08;33.01;100959.00;4935298;29;20042;-76
2022/03/12 07:23:48;;;;;;;44.05;22.60;;;;;;;6.99;31.12;100934.34;4935175;29;20040;-76
2022/03/12 07:26:14;;;;;;;46.05;23.90;;;;;;;8.35;28.85;100939.38;4935125;29;20028;-76
2022/03/12 07:28:39;;;;;;;42.60;21.92;;;;;;;7.95;28.49;100945.19;4934369;29;20453;-76
2022/03/12 07:31:05;;;;;;;38.38;20.52;;;;;;;7.60;29.91;100940.50;4934896;29;20118;-76
2022/03/12 07:33:30;;;;;;;41.35;21.63;;;;;;;6.82;29.52;100944.88;4935032;29;20442;-76
2022/03/12 07:35:56;;;;;;;37.30;21.35;;;;;;;7.36;30.10;100957.22;4934709;29;20055;-76
2022/03/12 07:38:21;;;;;;;41.03;23.55;;;;;;;7.23;29.44;100936.66;4934972;29;20115;-77
2022/03/12 07:40:47;;;;;;;48.05;23.83;;;;;;;7.02;29.25;100949.88;4935396;29;20441;-76
2022/03/12 07:43:12;;;;;;;51.83;25.13;;;;;;;6.68;29.40;100942.44;4934843;29;20459;-76
2022/03/12 07:45:38;;;;;;;42.97;23.40;;;;;;;6.61;29.85;100942.50;4935030;29;20051;-76
2022/03/12 07:48:05;;;;;;;40.33;22.60;;;;;;;6.48;30.25;100945.22;4934709;29;20107;-76
2022/03/12 07:50:31;;;;;;;47.30;24.55;;;;;;;6.20;30.37;100933.41;4934872;29;20044;-76
2022/03/12 07:52:57;;;;;;;36.22;20.77;;;;;;;6.00;30.74;100942.19;4934409;29;20031;-77
2022/03/12 07:55:29;;;;;;;37.85;22.58;;;;;;;6.03;30.87;100950.78;4933595;29;20028;-76
2022/03/12 07:57:55;;;;;;;46.13;25.20;;;;;;;5.80;30.62;100940.56;4934760;29;20357;-76
2022/03/12 08:00:20;;;;;;;39.15;23.38;;;;;;;5.67;31.39;100937.19;4933499;29;20055;-76
2022/03/12 08:02:47;;;;;;;39.80;21.58;;;;;;;5.55;31.23;100945.88;4934788;29;20028;-76
2022/03/12 08:05:15;;;;;;;35.03;20.13;;;;;;;5.34;31.58;100930.47;4934113;29;20070;-76
2022/03/12 08:07:41;;;;;;;40.22;22.63;;;;;;;5.42;32.18;100933.88;4934885;29;20035;-76
2022/03/12 08:10:08;;;;;;;52.00;27.38;;;;;;;5.16;31.76;100928.84;4934782;29;20039;-76
2022/03/12 08:12:35;;;;;;;43.80;23.60;;;;;;;4.90;31.94;100939.25;4934479;29;20079;-76
2022/03/12 08:15:08;;;;;;;37.03;21.20;;;;;;;4.94;32.37;100948.72;4934390;29;20032;-76
2022/03/12 08:17:33;;;;;;;37.25;20.85;;;;;;;4.90;32.25;100944.41;4934608;29;20083;-76
2022/03/12 08:19:58;;;;;;;32.65;19.38;;;;;;;4.94;32.28;100949.56;4934282;29;20460;-76
2022/03/12 08:22:24;;;;;;;38.58;21.20;;;;;;;4.89;31.92;100955.63;4934622;29;20028;-76
2022/03/12 08:24:53;;;;;;;36.67;19.42;;;;;;;4.76;32.32;100934.09;4934503;29;20039;-76
2022/03/12 08:27:18;;;;;;;38.22;19.17;;;;;;;4.77;32.57;100946.16;4934427;29;20031;-76
2022/03/12 08:29:44;;;;;;;35.50;20.17;;;;;;;4.93;32.66;100952.13;4934644;29;20023;-76
2022/03/12 08:32:11;;;;;;;35.63;20.15;;;;;;;4.98;32.58;100943.53;4934305;29;20118;-76
2022/03/12 08:34:37;;;;;;;35.90;20.33;;;;;;;5.13;32.55;100955.53;4934470;29;20036;-76
2022/03/12 08:37:04;;;;;;;37.83;20.42;;;;;;;5.10;32.11;100941.75;4934412;29;20396;-75
2022/03/12 08:39:29;;;;;;;44.10;21.08;;;;;;;5.06;32.03;100929.75;4934554;29;20050;-76
2022/03/12 08:41:55;;;;;;;44.55;21.90;;;;;;;5.11;31.90;100946.06;4934471;29;20471;-76
2022/03/12 08:44:21;;;;;;;35.78;20.17;;;;;;;4.93;32.34;100944.38;4934203;29;20035;-76
2022/03/12 08:46:47;;;;;;;40.05;20.85;;;;;;;4.74;32.75;100953.91;4933177;29;20111;-81
2022/03/12 08:49:13;;;;;;;41.20;21.50;;;;;;;4.75;32.93;100956.47;4932039;29;20384;-81
2022/03/12 08:51:41;;;;;;;37.50;20.20;;;;;;;4.77;33.31;100942.72;4934131;29;20035;-82
2022/03/12 08:54:07;;;;;;;38.05;21.02;;;;;;;4.87;33.48;100942.69;4933030;29;20095;-82
2022/03/12 08:56:33;;;;;;;35.83;21.30;;;;;;;4.77;33.41;100942.72;4932744;29;20134;-82
2022/03/12 08:58:58;;;;;;;39.35;20.55;;;;;;;4.73;33.12;100945.31;4932570;28;20540;-82
2022/03/12 09:01:25;;;;;;;34.10;19.33;;;;;;;4.66;32.86;100941.00;4932560;28;20106;-81
2022/03/12 09:03:51;;;;;;;36.42;19.45;;;;;;;4.47;33.36;100929.88;4932796;28;20407;-80
2022/03/12 09:06:18;;;;;;;42.40;21.58;;;;;;;4.54;33.30;100933.28;4932621;29;20031;-82
2022/03/12 09:08:44;;;;;;;39.45;20.17;;;;;;;4.51;33.53;100938.47;4932682;29;20032;-82
2022/03/12 09:11:10;;;;;;;36.42;19.48;;;;;;;4.67;33.44;100945.31;4931063;28;20063;-82
2022/03/12 09:13:36;;;;;;;33.13;20.42;;;;;;;4.85;33.51;100948.75;4932257;29;20031;-82
2022/03/12 09:16:01;;;;;;;42.60;21.55;;;;;;;4.65;33.26;100926.41;4932023;28;20028;-83
2022/03/12 09:18:32;;;;;;;37.95;20.67;;;;;;;4.54;32.94;100940.19;4935453;29;20020;-80
2022/03/12 09:20:58;;;;;;;34.58;20.98;;;;;;;4.46;33.32;100942.75;4935623;28;20110;-78
2022/03/12 09:23:23;;;;;;;45.85;22.02;;;;;;;4.33;33.81;100941.91;4936754;29;20115;-78
2022/03/12 09:25:50;;;;;;;34.22;20.50;;;;;;;4.24;33.58;100931.59;4936975;29;20032;-80
2022/03/12 09:28:17;;;;;;;34.55;18.73;;;;;;;4.08;33.42;100915.25;4935432;28;20035;-81
2022/03/12 09:30:43;;;;;;;34.83;18.50;;;;;;;4.24;33.88;100929.03;4935343;29;20039;-81
2022/03/12 09:33:08;;;;;;;46.35;21.85;;;;;;;4.36;34.12;100936.75;4935801;29;20039;-81
2022/03/12 09:35:34;;;;;;;41.63;20.60;;;;;;;4.21;33.80;100922.16;4935495;29;20110;-81
2022/03/12 09:38:01;;;;;;;43.40;19.50;;;;;;;4.27;33.46;100928.19;4936567;29;20593;-81
2022/03/12 09:40:29;;;;;;;31.85;18.95;;;;;;;4.15;33.56;100916.13;4968302;28;20365;-82
2022/03/12 09:42:54;;;;;;;32.17;17.30;;;;;;;4.20;33.55;100912.69;4967804;28;20059;-82
2022/03/12 09:45:22;;;;;;;34.55;19.85;;;;;;;4.27;33.00;100933.34;4967671;28;20070;-82
2022/03/12 09:47:47;;;;;;;29.60;16.67;;;;;;;4.28;33.49;100917.84;4937265;29;20055;-81
2022/03/12 09:50:14;;;;;;;29.58;17.75;;;;;;;4.41;32.94;100921.28;4967126;28;20059;-81
2022/03/12 09:52:40;;;;;;;29.65;17.13;;;;;;;4.41;33.02;100916.13;4936467;29;20463;-81
2022/03/12 09:55:07;;;;;;;29.33;17.25;;;;;;;4.40;32.80;100907.53;4966667;28;20038;-80
2022/03/12 09:57:34;;;;;;;31.88;17.58;;;;;;;4.55;32.89;100916.97;4957891;28;20032;-81
2022/03/12 10:00:04;;;;;;;26.63;16.15;;;;;;;4.68;32.74;100913.50;4935145;29;20038;-81
2022/03/12 10:02:30;;;;;;;30.17;16.73;;;;;;;4.79;32.79;100912.59;4935312;28;20082;-82
2022/03/12 10:04:55;;;;;;;28.73;16.45;;;;;;;4.85;32.36;100920.34;4935443;28;20431;-82
2022/03/12 10:07:21;;;;;;;30.38;17.85;;;;;;;4.76;32.13;100905.72;4934565;29;20051;-82
2022/03/12 10:09:46;;;;;;;30.58;17.00;;;;;;;4.78;32.55;100898.00;4934919;28;20035;-82
2022/03/12 10:12:12;;;;;;;27.08;14.65;;;;;;;4.88;31.84;100910.84;4934691;28;20043;-82
2022/03/12 10:14:38;;;;;;;25.90;15.40;;;;;;;4.92;31.68;100901.38;4936276;29;20028;-81
2022/03/12 10:17:03;;;;;;;26.88;14.77;;;;;;;5.05;31.53;100913.38;4936288;29;20031;-81
2022/03/12 10:19:30;;;;;;;28.67;16.02;;;;;;;5.09;31.36;100907.31;4934871;29;20133;-81
2022/03/12 10:21:56;;;;;;;34.95;17.50;;;;;;;5.14;31.57;100905.59;4934834;28;20399;-81
2022/03/12 10:24:22;;;;;;;31.38;16.13;;;;;;;5.17;31.15;100896.97;4936115;29;20027;-81
2022/03/12 10:26:48;;;;;;;31.73;16.77;;;;;;;5.24;31.13;100903.84;4936164;29;20036;-82
2022/03/12 10:29:13;;;;;;;27.13;15.07;;;;;;;5.30;30.91;100901.22;4934270;29;20031;-81
2022/03/12 10:31:39;;;;;;;26.95;16.02;;;;;;;5.33;30.79;100890.88;4936181;29;20524;-82
2022/03/12 10:34:21;;;;;;;28.67;17.70;;;;;;;5.46;31.11;100897.69;4934338;29;20365;-81
2022/03/12 10:36:48;;;;;;;36.25;17.23;;;;;;;5.42;30.25;100884.78;4934249;29;20068;-79
2022/03/12 10:39:15;;;;;;;28.83;16.90;;;;;;;5.40;29.67;100900.31;4935645;29;20020;-79
2022/03/12 10:41:41;;;;;;;29.92;17.10;;;;;;;5.23;29.76;100896.97;4935845;29;20059;-79
2022/03/12 10:44:07;;;;;;;28.23;17.00;;;;;;;5.18;30.53;100890.94;4935753;29;20380;-79
2022/03/12 10:46:35;;;;;;;30.50;17.00;;;;;;;5.21;30.26;100889.19;4934562;29;20391;-79
2022/03/12 10:49:04;;;;;;;31.50;17.38;;;;;;;5.24;30.28;100902.09;4934527;29;20476;-79
2022/03/12 10:51:37;;;;;;;32.10;16.98;;;;;;;5.31;30.34;100896.91;4934304;29;20122;-79
2022/03/12 10:54:09;;;;;;;25.38;15.40;;;;;;;5.23;29.63;100886.63;4934435;29;20499;-79
2022/03/12 10:56:54;;;;;;;31.98;15.75;;;;;;;5.23;30.21;100894.38;4959179;28;20039;-79
2022/03/12 10:59:26;;;;;;;27.40;15.57;;;;;;;5.25;29.52;100897.78;4916562;29;20052;-79
2022/03/12 11:02:00;;;;;;;28.10;14.57;;;;;;;5.23;29.70;100881.47;4916688;29;20039;-79
2022/03/12 11:04:30;;;;;;;28.75;15.63;;;;;;;5.34;29.90;100878.81;4916227;29;20107;-79
2022/03/12 11:07:02;;;;;;;26.83;15.68;;;;;;;5.38;30.32;100883.09;4915012;29;20393;-79
2022/03/12 11:09:33;;;;;;;29.33;16.92;;;;;;;5.48;30.25;100885.63;4922682;29;20035;-79
2022/03/12 11:12:00;;;;;;;;;;;;;;;5.48;30.48;100880.47;4934250;28;20055;-79
2022/03/12 11:14:29;;;;;;;27.55;15.27;;;;;;;5.43;29.23;100876.16;4934812;29;19919;-79